Time;durP1;ratioP1;P1;durP2;ratioP2;P2;SDS_P1;SDS_P2;PMS_P1;PMS_P2;Temp;Humidity;BMP_temperature;BMP_pressure;BME280_temperature;BME280_humidity;BME280_pressure;Samples;Min_cycle;Max_cycle;Signal;HPM_P1;HPM_P2
2021/09/24 00:01:24;;;;;;;9.98;2.33;;;12.60;99.90;;;;;;5011327;28;20029;-50
2021/09/24 00:03:50;;;;;;;9.30;2.63;;;12.60;99.90;;;;;;5012653;28;20029;-50
2021/09/24 00:06:16;;;;;;;11.35;2.55;;;12.50;99.90;;;;;;5012595;28;20547;-49
2021/09/24 00:08:42;;;;;;;8.35;2.50;;;12.50;99.90;;;;;;5012651;28;20072;-51
2021/09/24 00:11:08;;;;;;;17.95;2.97;;;12.50;99.90;;;;;;5011618;28;20373;-50
2021/09/24 00:13:33;;;;;;;13.73;3.88;;;12.50;99.90;;;;;;5012567;28;20034;-53
2021/09/24 00:15:59;;;;;;;10.38;2.38;;;12.40;99.90;;;;;;5012214;28;20494;-50
2021/09/24 00:18:25;;;;;;;10.85;1.98;;;12.30;99.90;;;;;;5012435;28;20022;-48
2021/09/24 00:20:50;;;;;;;15.07;3.13;;;12.30;99.90;;;;;;4994463;28;20030;-48
2021/09/24 00:23:16;;;;;;;9.25;2.83;;;12.30;99.90;;;;;;5012388;28;20022;-51
2021/09/24 00:25:41;;;;;;;8.57;1.70;;;12.30;99.90;;;;;;5011842;28;20022;-49
2021/09/24 00:28:08;;;;;;;13.05;2.67;;;12.20;99.90;;;;;;5012249;28;20029;-47
2021/09/24 00:30:34;;;;;;;11.35;2.95;;;12.20;99.90;;;;;;5011771;28;20109;-52
2021/09/24 00:33:00;;;;;;;13.50;2.92;;;12.20;99.90;;;;;;5010834;28;20152;-48
2021/09/24 00:35:25;;;;;;;13.70;2.88;;;12.10;99.90;;;;;;5020754;28;20017;-50
2021/09/24 00:37:51;;;;;;;8.70;2.50;;;12.10;99.90;;;;;;5031929;28;20029;-48
2021/09/24 00:40:16;;;;;;;10.15;2.53;;;12.00;99.90;;;;;;5031894;28;20147;-52
2021/09/24 00:42:42;;;;;;;8.63;2.30;;;12.00;99.90;;;;;;5031507;28;20028;-48
2021/09/24 00:45:09;;;;;;;10.88;2.88;;;11.90;99.90;;;;;;5031799;28;20434;-51
2021/09/24 00:47:35;;;;;;;10.55;2.58;;;11.90;99.90;;;;;;5031744;28;20017;-50
2021/09/24 00:50:01;;;;;;;10.27;3.05;;;11.90;99.90;;;;;;5031115;28;20570;-53
2021/09/24 00:52:28;;;;;;;11.75;2.97;;;11.80;99.90;;;;;;5031790;28;20029;-51
2021/09/24 00:54:54;;;;;;;15.88;2.55;;;11.80;99.90;;;;;;5031631;28;20018;-49
2021/09/24 00:57:20;;;;;;;12.68;3.35;;;11.80;99.90;;;;;;5031652;28;20555;-51
2021/09/24 00:59:50;;;;;;;17.88;3.65;;;11.80;99.90;;;;;;5029079;28;20029;-49
2021/09/24 01:02:16;;;;;;;11.02;2.83;;;11.80;99.90;;;;;;5029019;28;20483;-50
2021/09/24 01:04:42;;;;;;;8.80;2.90;;;11.80;99.90;;;;;;5029370;28;20037;-51
2021/09/24 01:07:11;;;;;;;14.48;3.08;;;11.80;99.90;;;;;;5030923;28;20078;-51
2021/09/24 01:09:37;;;;;;;11.85;2.10;;;11.70;99.90;;;;;;5031090;28;20033;-53
2021/09/24 01:12:03;;;;;;;12.15;2.58;;;11.70;99.90;;;;;;5031316;28;20025;-49
2021/09/24 01:14:30;;;;;;;8.88;2.58;;;11.70;99.90;;;;;;5030558;28;20109;-49
2021/09/24 01:16:56;;;;;;;10.98;2.83;;;11.70;99.90;;;;;;5030974;28;20032;-49
2021/09/24 01:19:22;;;;;;;11.45;2.28;;;11.50;99.90;;;;;;5030764;28;20628;-50
2021/09/24 01:21:48;;;;;;;11.50;2.92;;;11.50;99.90;;;;;;5030980;28;20068;-50
2021/09/24 01:24:14;;;;;;;9.93;2.38;;;11.50;99.90;;;;;;5030583;28;20087;-52
2021/09/24 01:26:51;;;;;;;13.88;2.70;;;11.50;99.90;;;;;;5013293;28;20483;-49
2021/09/24 01:29:17;;;;;;;15.00;3.67;;;11.50;99.90;;;;;;5030865;28;20021;-51
2021/09/24 01:31:43;;;;;;;14.65;3.20;;;11.50;99.90;;;;;;5031362;28;20084;-48
2021/09/24 01:34:09;;;;;;;12.15;3.22;;;11.50;99.90;;;;;;5030950;28;20091;-49
2021/09/24 01:36:35;;;;;;;11.82;2.88;;;11.50;99.90;;;;;;5030696;28;20100;-49
2021/09/24 01:39:09;;;;;;;12.02;2.78;;;11.50;99.90;;;;;;5030423;28;20506;-53
2021/09/24 01:41:46;;;;;;;9.77;2.80;;;11.50;99.90;;;;;;5012957;28;20032;-49
2021/09/24 01:44:12;;;;;;;12.52;3.30;;;11.50;99.90;;;;;;5030717;28;20025;-50
2021/09/24 01:46:39;;;;;;;11.02;2.88;;;11.40;99.90;;;;;;5030622;28;20100;-52
2021/09/24 01:49:06;;;;;;;12.68;3.40;;;11.50;99.90;;;;;;5030161;28;20026;-49
2021/09/24 01:51:33;;;;;;;22.45;2.72;;;11.40;99.90;;;;;;5030491;28;20056;-50
2021/09/24 01:53:59;;;;;;;7.13;2.75;;;11.40;99.90;;;;;;5030501;28;20025;-50
2021/09/24 01:56:26;;;;;;;10.20;3.67;;;11.30;99.90;;;;;;5030514;28;20037;-49
2021/09/24 01:58:52;;;;;;;15.15;3.25;;;11.30;99.90;;;;;;5030682;28;20446;-48
2021/09/24 02:01:17;;;;;;;14.85;3.05;;;11.30;99.90;;;;;;5030586;28;20080;-49
2021/09/24 02:03:43;;;;;;;8.30;2.65;;;11.20;99.90;;;;;;5030516;28;20497;-52
2021/09/24 02:06:08;;;;;;;11.77;3.33;;;11.20;99.90;;;;;;5029703;28;20104;-48
2021/09/24 02:08:34;;;;;;;10.43;2.92;;;11.10;99.90;;;;;;5030344;28;20017;-49
2021/09/24 02:10:59;;;;;;;11.20;2.75;;;11.10;99.90;;;;;;5030060;28;20048;-52
2021/09/24 02:13:25;;;;;;;9.40;2.13;;;11.10;99.90;;;;;;5012491;28;20040;-50
2021/09/24 02:15:51;;;;;;;12.45;3.13;;;11.00;99.90;;;;;;5029991;28;20033;-51
2021/09/24 02:18:17;;;;;;;11.80;3.17;;;11.00;99.90;;;;;;5030124;28;20033;-54
2021/09/24 02:20:43;;;;;;;17.75;3.42;;;11.00;99.90;;;;;;5029945;28;20083;-50
2021/09/24 02:23:08;;;;;;;12.55;3.05;;;10.90;99.90;;;;;;5030013;28;20045;-49
2021/09/24 02:25:34;;;;;;;15.38;3.22;;;10.90;99.90;;;;;;5029812;28;20061;-55
2021/09/24 02:28:00;;;;;;;16.42;3.10;;;10.90;99.90;;;;;;5032118;28;20022;-51
2021/09/24 02:30:25;;;;;;;13.77;2.88;;;10.80;99.90;;;;;;5031660;28;20032;-50
2021/09/24 02:32:51;;;;;;;18.10;3.67;;;10.80;99.90;;;;;;5050149;28;20618;-50
2021/09/24 02:35:17;;;;;;;14.27;4.60;;;10.80;99.90;;;;;;5050152;28;20024;-51
2021/09/24 02:37:42;;;;;;;14.18;3.38;;;10.80;99.90;;;;;;5050006;28;20032;-51
2021/09/24 02:40:08;;;;;;;10.68;3.30;;;10.70;99.90;;;;;;5049527;28;20044;-53
2021/09/24 02:42:34;;;;;;;17.80;3.25;;;10.70;99.90;;;;;;5049673;28;20519;-48
2021/09/24 02:44:59;;;;;;;17.13;2.53;;;10.70;99.90;;;;;;5049717;28;20483;-52
2021/09/24 02:47:25;;;;;;;11.48;3.05;;;10.60;99.90;;;;;;5049552;28;20029;-53
2021/09/24 02:49:51;;;;;;;15.13;3.08;;;10.60;99.90;;;;;;5049293;28;20318;-55
2021/09/24 02:52:16;;;;;;;15.00;2.58;;;10.60;99.90;;;;;;5049669;28;20029;-52
2021/09/24 02:54:42;;;;;;;12.38;3.60;;;10.60;99.90;;;;;;5031949;28;20106;-50
2021/09/24 02:57:07;;;;;;;11.02;2.95;;;10.50;99.90;;;;;;5049573;28;20079;-51
2021/09/24 02:59:33;;;;;;;18.42;3.05;;;10.60;99.90;;;;;;5049205;28;20029;-54
2021/09/24 03:01:58;;;;;;;13.77;3.22;;;10.50;99.90;;;;;;5049510;28;20116;-52
2021/09/24 03:04:27;;;;;;;15.27;3.35;;;10.50;99.90;;;;;;5049833;28;20025;-48
2021/09/24 03:06:53;;;;;;;18.85;3.50;;;10.50;99.90;;;;;;5049748;28;20112;-51
2021/09/24 03:09:18;;;;;;;12.45;2.90;;;10.50;99.90;;;;;;5049383;28;20105;-50
2021/09/24 03:11:44;;;;;;;15.57;3.78;;;10.40;99.90;;;;;;5031792;28;20031;-49
2021/09/24 03:14:10;;;;;;;18.30;3.47;;;10.40;99.90;;;;;;5049355;28;20032;-49
2021/09/24 03:16:37;;;;;;;15.07;3.08;;;10.40;99.90;;;;;;5049279;28;20040;-49
2021/09/24 03:19:06;;;;;;;13.27;3.88;;;10.40;99.90;;;;;;5049249;28;20040;-49
2021/09/24 03:21:32;;;;;;;14.98;3.65;;;10.40;99.90;;;;;;5049453;28;20057;-49
2021/09/24 03:23:57;;;;;;;14.85;4.82;;;10.30;99.90;;;;;;5049357;28;20064;-51
2021/09/24 03:26:23;;;;;;;11.57;3.15;;;10.30;99.90;;;;;;5048955;28;20108;-49
2021/09/24 03:28:49;;;;;;;19.35;4.22;;;10.30;99.90;;;;;;5050507;28;20029;-48
2021/09/24 03:31:15;;;;;;;15.95;3.47;;;10.20;99.90;;;;;;5034830;28;20025;-49
2021/09/24 03:33:41;;;;;;;11.20;3.33;;;10.20;99.90;;;;;;5053425;28;20025;-55
2021/09/24 03:36:07;;;;;;;12.68;3.03;;;10.20;99.90;;;;;;5053838;28;20032;-54
2021/09/24 03:38:33;;;;;;;10.85;3.05;;;10.20;99.90;;;;;;5053411;28;20033;-50
2021/09/24 03:40:58;;;;;;;20.80;4.22;;;10.10;99.90;;;;;;5052929;28;20044;-54
2021/09/24 03:43:24;;;;;;;12.57;3.35;;;10.10;99.90;;;;;;5052866;28;20060;-53
2021/09/24 03:45:49;;;;;;;16.83;3.75;;;10.10;99.90;;;;;;5034845;28;20025;-49
2021/09/24 03:48:15;;;;;;;16.48;2.90;;;10.10;99.90;;;;;;5052542;28;20075;-49
2021/09/24 03:50:41;;;;;;;18.55;4.35;;;10.00;99.90;;;;;;5052355;28;20097;-55
2021/09/24 03:53:06;;;;;;;15.32;3.28;;;10.00;99.90;;;;;;5052608;28;20033;-53
2021/09/24 03:55:32;;;;;;;13.52;3.03;;;10.00;99.90;;;;;;5052506;28;20441;-55
2021/09/24 03:57:58;;;;;;;15.73;3.03;;;10.00;99.90;;;;;;5052578;28;20406;-53
2021/09/24 04:00:23;;;;;;;17.10;3.42;;;10.00;99.90;;;;;;5052209;28;20025;-51
2021/09/24 04:02:49;;;;;;;15.40;4.00;;;9.90;99.90;;;;;;5052358;28;20078;-52
2021/09/24 04:05:15;;;;;;;12.98;2.92;;;9.90;99.90;;;;;;5051833;28;20017;-54
2021/09/24 04:07:40;;;;;;;13.10;3.25;;;9.90;99.90;;;;;;5052464;28;20017;-52
2021/09/24 04:10:07;;;;;;;22.20;3.30;;;9.90;99.90;;;;;;5052303;28;20083;-50
2021/09/24 04:12:32;;;;;;;15.38;4.03;;;9.80;99.90;;;;;;5052739;28;20035;-52
2021/09/24 04:14:58;;;;;;;21.92;3.80;;;9.80;99.90;;;;;;5052038;28;20041;-49
2021/09/24 04:17:24;;;;;;;18.77;3.45;;;9.80;99.90;;;;;;5052123;28;20036;-50
2021/09/24 04:19:50;;;;;;;11.88;3.25;;;9.80;99.90;;;;;;5052043;28;20142;-52
2021/09/24 04:22:15;;;;;;;20.73;3.63;;;9.80;99.90;;;;;;5052033;28;20431;-50
2021/09/24 04:24:41;;;;;;;10.23;3.03;;;9.80;99.90;;;;;;5051623;28;20013;-50
2021/09/24 04:27:06;;;;;;;20.42;4.13;;;9.80;99.90;;;;;;5052058;28;20025;-50
2021/09/24 04:29:32;;;;;;;12.88;3.40;;;9.70;99.90;;;;;;5051632;28;20391;-51
2021/09/24 04:31:58;;;;;;;18.30;3.70;;;9.70;99.90;;;;;;5051900;28;20021;-49
2021/09/24 04:34:23;;;;;;;11.63;2.83;;;9.70;99.90;;;;;;5033995;28;20067;-52
2021/09/24 04:36:49;;;;;;;12.65;2.83;;;9.80;99.90;;;;;;5051687;28;20034;-51
2021/09/24 04:39:15;;;;;;;15.80;3.55;;;9.70;99.90;;;;;;5051438;28;20458;-48
2021/09/24 04:41:40;;;;;;;13.20;3.05;;;9.70;99.90;;;;;;5050723;28;20475;-49
2021/09/24 04:44:06;;;;;;;19.80;4.22;;;9.70;99.90;;;;;;5051825;28;20025;-54
2021/09/24 04:46:32;;;;;;;16.85;3.60;;;9.70;99.90;;;;;;5051699;28;20021;-49
2021/09/24 04:48:57;;;;;;;15.18;3.42;;;9.70;99.90;;;;;;5051434;28;20075;-54
2021/09/24 04:51:23;;;;;;;15.60;3.38;;;9.70;99.90;;;;;;5051405;28;20025;-49
2021/09/24 04:53:49;;;;;;;12.05;3.00;;;9.70;99.90;;;;;;5051650;28;20422;-49
2021/09/24 04:56:15;;;;;;;8.20;2.75;;;9.70;99.90;;;;;;5051448;28;20055;-52
2021/09/24 04:58:42;;;;;;;19.48;3.47;;;9.70;99.90;;;;;;5051371;28;20033;-49
2021/09/24 05:01:08;;;;;;;18.67;3.90;;;9.70;99.90;;;;;;5050993;28;20479;-50
2021/09/24 05:03:34;;;;;;;13.90;4.05;;;9.70;99.90;;;;;;5051408;28;20107;-48
2021/09/24 05:05:59;;;;;;;13.77;3.53;;;9.60;99.90;;;;;;5032742;28;20120;-49
2021/09/24 05:08:25;;;;;;;18.90;3.95;;;9.60;99.90;;;;;;5033300;28;20565;-50
2021/09/24 05:10:51;;;;;;;19.50;3.83;;;9.60;99.90;;;;;;5032970;28;20763;-51
2021/09/24 05:13:16;;;;;;;17.40;3.67;;;9.70;99.90;;;;;;5051314;28;20082;-50
2021/09/24 05:15:42;;;;;;;12.07;3.35;;;9.60;99.90;;;;;;5051004;28;20051;-48
2021/09/24 05:18:08;;;;;;;16.42;3.50;;;9.60;99.90;;;;;;5033543;28;20025;-52
2021/09/24 05:20:34;;;;;;;12.73;3.60;;;9.70;99.90;;;;;;5051132;28;20033;-48
2021/09/24 05:22:59;;;;;;;12.23;3.47;;;9.60;99.90;;;;;;5050890;28;20036;-54
2021/09/24 05:25:26;;;;;;;10.63;3.53;;;9.70;99.90;;;;;;5050706;28;20025;-50
2021/09/24 05:27:52;;;;;;;19.17;4.28;;;9.70;99.90;;;;;;5032963;28;20159;-54
2021/09/24 05:30:19;;;;;;;15.82;4.05;;;9.70;99.90;;;;;;5050540;28;20037;-48
2021/09/24 05:32:44;;;;;;;16.08;3.65;;;9.70;99.90;;;;;;5050695;28;20070;-50
2021/09/24 05:35:11;;;;;;;22.48;4.05;;;9.80;99.90;;;;;;5050720;28;20120;-53
2021/09/24 05:37:37;;;;;;;20.38;5.15;;;9.70;99.90;;;;;;5050880;28;20111;-49
2021/09/24 05:40:05;;;;;;;18.15;3.75;;;9.80;99.90;;;;;;5050246;28;20036;-52
2021/09/24 05:42:30;;;;;;;22.77;4.65;;;9.80;99.90;;;;;;5050262;28;20024;-54
2021/09/24 05:44:56;;;;;;;15.48;3.13;;;9.80;99.90;;;;;;5050674;28;20550;-53
2021/09/24 05:47:22;;;;;;;16.52;3.53;;;9.80;99.90;;;;;;5050730;28;20491;-51
2021/09/24 05:49:47;;;;;;;20.83;3.88;;;9.80;99.90;;;;;;5050247;28;20063;-48
2021/09/24 05:52:13;;;;;;;17.10;3.22;;;9.80;99.90;;;;;;5032410;28;20056;-50
2021/09/24 05:54:39;;;;;;;18.63;5.32;;;9.90;99.90;;;;;;5050518;28;20078;-51
2021/09/24 05:57:04;;;;;;;17.90;4.65;;;9.90;99.90;;;;;;5050210;28;20509;-52
2021/09/24 05:59:30;;;;;;;13.35;4.22;;;10.00;99.90;;;;;;5049940;28;20035;-54
2021/09/24 06:01:55;;;;;;;17.40;3.50;;;10.00;99.90;;;;;;5050290;28;20537;-49
2021/09/24 06:04:21;;;;;;;21.33;3.85;;;10.10;99.90;;;;;;5050339;28;20427;-50
2021/09/24 06:06:47;;;;;;;17.20;3.85;;;10.20;99.90;;;;;;5050114;28;20061;-53
2021/09/24 06:09:14;;;;;;;13.48;3.40;;;10.30;99.90;;;;;;5049743;28;20018;-50
2021/09/24 06:11:39;;;;;;;15.15;3.88;;;10.40;99.90;;;;;;5050204;28;20029;-50
2021/09/24 06:14:05;;;;;;;14.20;3.75;;;10.40;99.90;;;;;;5032185;28;20106;-50
2021/09/24 06:16:31;;;;;;;12.18;3.70;;;10.50;99.90;;;;;;5032045;28;20045;-48
2021/09/24 06:18:57;;;;;;;15.88;3.22;;;10.50;99.90;;;;;;5050500;28;20464;-54
2021/09/24 06:21:24;;;;;;;16.00;3.70;;;10.60;99.90;;;;;;5050291;28;20445;-53
2021/09/24 06:23:50;;;;;;;15.38;3.70;;;10.60;99.90;;;;;;5049969;28;20029;-49
2021/09/24 06:26:15;;;;;;;7.75;2.35;;;10.70;99.90;;;;;;5049691;28;20036;-52
2021/09/24 06:28:41;;;;;;;15.85;3.30;;;10.80;99.90;;;;;;5032026;28;20035;-51
2021/09/24 06:31:07;;;;;;;19.05;3.90;;;10.90;99.90;;;;;;5049868;28;20021;-49
2021/09/24 06:33:33;;;;;;;18.83;3.83;;;11.00;99.90;;;;;;5049791;28;20511;-50
2021/09/24 06:35:59;;;;;;;19.63;4.05;;;11.10;99.90;;;;;;5050012;28;20119;-53
2021/09/24 06:38:25;;;;;;;17.08;3.70;;;11.10;99.90;;;;;;5050072;28;20033;-49
2021/09/24 06:40:51;;;;;;;20.38;4.45;;;11.10;99.90;;;;;;5049584;28;20025;-52
2021/09/24 06:43:17;;;;;;;16.95;3.17;;;11.20;99.90;;;;;;5049687;28;20048;-49
2021/09/24 06:45:43;;;;;;;13.30;3.65;;;11.20;99.90;;;;;;5032081;28;20043;-52
2021/09/24 06:48:08;;;;;;;15.02;3.30;;;11.30;99.90;;;;;;5049867;28;20029;-49
2021/09/24 06:50:35;;;;;;;16.35;3.75;;;11.30;99.90;;;;;;5049634;28;20025;-55
2021/09/24 06:53:01;;;;;;;13.52;3.45;;;11.40;99.90;;;;;;5050111;28;20025;-51
2021/09/24 06:55:29;;;;;;;11.73;3.20;;;11.40;99.90;;;;;;5049415;28;20029;-53
2021/09/24 06:57:55;;;;;;;10.13;3.22;;;11.50;99.90;;;;;;5049683;28;20025;-52
2021/09/24 07:00:22;;;;;;;15.52;3.67;;;11.50;99.90;;;;;;5031719;28;20047;-49
2021/09/24 07:02:48;;;;;;;13.18;3.10;;;11.50;99.90;;;;;;5049375;28;20017;-49
2021/09/24 07:05:13;;;;;;;18.55;3.33;;;11.60;99.90;;;;;;5052874;28;20028;-49
2021/09/24 07:07:41;;;;;;;11.65;3.45;;;11.60;99.90;;;;;;5053122;28;20086;-52
2021/09/24 07:10:07;;;;;;;15.25;3.38;;;11.70;99.90;;;;;;5052855;28;20155;-49
2021/09/24 07:12:33;;;;;;;11.02;3.13;;;11.70;99.90;;;;;;5053114;28;20469;-52
2021/09/24 07:14:58;;;;;;;10.43;3.53;;;11.80;99.90;;;;;;5053132;28;20067;-55
2021/09/24 07:17:24;;;;;;;12.10;3.40;;;11.70;99.90;;;;;;5053865;28;20033;-53
2021/09/24 07:19:49;;;;;;;8.75;2.83;;;11.80;99.90;;;;;;5052756;28;20071;-50
2021/09/24 07:22:16;;;;;;;10.95;3.10;;;11.90;99.90;;;;;;5035126;28;20171;-54
2021/09/24 07:24:41;;;;;;;13.00;3.95;;;11.90;99.90;;;;;;5052850;28;20024;-54
2021/09/24 07:27:07;;;;;;;10.50;3.67;;;12.00;99.90;;;;;;5053070;28;20029;-53
2021/09/24 07:29:33;;;;;;;11.63;3.15;;;12.00;99.90;;;;;;5052708;28;20017;-55
2021/09/24 07:31:59;;;;;;;14.52;3.67;;;12.00;99.90;;;;;;5052874;28;20108;-50
2021/09/24 07:34:25;;;;;;;16.55;3.20;;;12.10;99.90;;;;;;5034894;28;20013;-53
2021/09/24 07:36:50;;;;;;;17.55;5.25;;;12.10;99.90;;;;;;5052546;28;20114;-49
2021/09/24 07:39:16;;;;;;;15.43;2.88;;;12.10;99.90;;;;;;5052190;28;20027;-51
2021/09/24 07:41:41;;;;;;;12.98;3.20;;;12.20;99.90;;;;;;5052638;28;20052;-52
2021/09/24 07:44:07;;;;;;;13.98;3.97;;;12.20;99.90;;;;;;5052550;28;20029;-50
2021/09/24 07:46:35;;;;;;;14.57;4.35;;;12.30;99.90;;;;;;5052726;28;20036;-50
2021/09/24 07:49:02;;;;;;;16.13;4.13;;;12.40;99.90;;;;;;5052515;28;20025;-56
2021/09/24 07:51:27;;;;;;;11.98;3.45;;;12.40;99.90;;;;;;5052673;28;20017;-53
2021/09/24 07:53:53;;;;;;;11.38;3.45;;;12.50;99.90;;;;;;5052816;28;20506;-50
2021/09/24 07:56:18;;;;;;;10.02;3.03;;;12.60;99.90;;;;;;5035033;28;20065;-52
2021/09/24 07:58:44;;;;;;;11.98;4.18;;;12.60;99.90;;;;;;5052782;28;20025;-55
2021/09/24 08:01:10;;;;;;;14.13;3.55;;;12.60;99.90;;;;;;5034793;28;20472;-54
2021/09/24 08:03:37;;;;;;;11.32;3.53;;;12.70;99.90;;;;;;5034205;28;20025;-55
2021/09/24 08:06:03;;;;;;;10.60;3.65;;;12.80;99.90;;;;;;5051996;28;20021;-55
2021/09/24 08:08:28;;;;;;;10.90;4.03;;;12.90;99.90;;;;;;5051845;28;20033;-54
2021/09/24 08:10:55;;;;;;;14.95;4.88;;;13.00;99.90;;;;;;5051666;28;20032;-52
2021/09/24 08:13:21;;;;;;;13.25;4.40;;;13.20;99.90;;;;;;5052231;28;20426;-54
2021/09/24 08:15:46;;;;;;;12.40;5.07;;;13.30;99.90;;;;;;5051409;28;20036;-53
2021/09/24 08:18:14;;;;;;;12.40;4.75;;;13.30;99.90;;;;;;5051789;28;20021;-50
2021/09/24 08:20:41;;;;;;;10.35;4.72;;;13.40;99.90;;;;;;5051530;28;20364;-56
2021/09/24 08:23:07;;;;;;;13.38;4.82;;;13.50;99.90;;;;;;5052147;28;20087;-52
2021/09/24 08:25:33;;;;;;;14.25;4.18;;;13.50;99.90;;;;;;5051805;28;20025;-51
2021/09/24 08:27:59;;;;;;;13.32;4.35;;;13.50;99.90;;;;;;5052089;28;20494;-52
2021/09/24 08:30:25;;;;;;;8.65;4.13;;;13.60;99.90;;;;;;5052337;28;20039;-51
2021/09/24 08:32:52;;;;;;;15.23;4.43;;;13.80;99.90;;;;;;5052267;28;20025;-54
2021/09/24 08:35:19;;;;;;;10.52;4.72;;;13.80;99.90;;;;;;5034112;28;20476;-52
2021/09/24 08:37:47;;;;;;;9.25;3.92;;;13.80;99.90;;;;;;5051972;28;20471;-53
2021/09/24 08:40:13;;;;;;;11.75;3.63;;;13.90;99.90;;;;;;5051485;28;20021;-53
2021/09/24 08:42:41;;;;;;;10.23;3.35;;;14.00;99.90;;;;;;5051774;28;20079;-54
2021/09/24 08:45:23;;;;;;;10.10;2.83;;;14.00;99.90;;;;;;5051731;28;20032;-54
2021/09/24 08:47:51;;;;;;;6.88;2.80;;;14.10;99.90;;;;;;5034356;28;20021;-54
2021/09/24 08:50:17;;;;;;;9.20;3.33;;;14.10;99.90;;;;;;5050892;28;20099;-56
2021/09/24 08:52:43;;;;;;;10.15;3.50;;;14.20;99.90;;;;;;5051704;28;20523;-53
2021/09/24 08:55:10;;;;;;;8.48;3.55;;;14.20;99.90;;;;;;5051478;28;20032;-56
2021/09/24 08:57:36;;;;;;;8.18;3.42;;;14.30;99.90;;;;;;5051289;28;20060;-55
2021/09/24 09:00:06;;;;;;;13.93;3.50;;;14.30;99.90;;;;;;5050998;28;20021;-57
2021/09/24 09:02:52;;;;;;;8.55;3.13;;;14.30;99.90;;;;;;5051409;28;20040;-57
2021/09/24 09:05:19;;;;;;;8.10;2.97;;;14.40;99.90;;;;;;5051713;28;20017;-57
2021/09/24 09:07:45;;;;;;;13.23;3.30;;;14.40;99.90;;;;;;5051434;28;20025;-55
2021/09/24 09:10:11;;;;;;;5.13;2.95;;;14.50;99.90;;;;;;5051058;28;20387;-52
2021/09/24 09:12:37;;;;;;;8.57;3.47;;;14.60;99.90;;;;;;5051571;28;20159;-55
2021/09/24 09:15:09;;;;;;;8.45;2.85;;;14.70;99.90;;;;;;5050547;28;20087;-57
2021/09/24 09:17:36;;;;;;;7.63;3.28;;;14.70;99.90;;;;;;5051082;28;20202;-55
2021/09/24 09:20:13;;;;;;;10.15;3.63;;;14.80;99.90;;;;;;5058232;22;20053;-51
2021/09/24 09:22:41;;;;;;;6.88;3.00;;;14.80;99.90;;;;;;5031113;28;20112;-50
2021/09/24 09:25:27;;;;;;;8.10;3.17;;;14.90;99.90;;;;;;5030840;28;20380;-49
2021/09/24 09:27:56;;;;;;;4.95;2.78;;;14.80;99.90;;;;;;5030371;28;20030;-52
2021/09/24 09:30:23;;;;;;;10.15;2.92;;;14.80;99.90;;;;;;5030508;28;20079;-51
2021/09/24 09:32:59;;;;;;;9.82;3.97;;;14.90;99.90;;;;;;5030747;28;20510;-53
2021/09/24 09:35:25;;;;;;;6.95;2.30;;;14.90;99.90;;;;;;5013136;28;20038;-50
2021/09/24 09:37:51;;;;;;;8.10;3.33;;;14.90;99.90;;;;;;5030953;28;20033;-51
2021/09/24 09:40:20;;;;;;;6.55;3.40;;;15.00;99.90;;;;;;5030329;28;20604;-52
2021/09/24 09:42:47;;;;;;;6.07;3.55;;;15.00;99.90;;;;;;5030465;28;20515;-49
2021/09/24 09:45:16;;;;;;;5.97;3.22;;;15.10;99.90;;;;;;5030263;28;20187;-54
2021/09/24 09:47:44;;;;;;;8.32;3.58;;;15.10;99.90;;;;;;5030722;28;20025;-51
2021/09/24 09:50:14;;;;;;;8.07;3.80;;;15.10;99.90;;;;;;5030084;28;20014;-55
2021/09/24 09:52:58;;;;;;;8.02;3.25;;;15.10;99.90;;;;;;5012749;28;20035;-55
2021/09/24 09:55:26;;;;;;;6.10;3.22;;;15.10;99.90;;;;;;5030441;28;20048;-50
2021/09/24 09:58:00;;;;;;;5.90;3.20;;;15.10;99.90;;;;;;5030354;28;20434;-52
2021/09/24 10:00:27;;;;;;;7.57;3.17;;;15.10;99.90;;;;;;5030102;28;20090;-53
2021/09/24 10:03:29;;;;;;;5.97;3.05;;;15.10;99.90;;;;;;5030123;28;20021;-52
2021/09/24 10:05:55;;;;;;;8.77;3.17;;;15.10;99.90;;;;;;5013482;28;20030;-51
2021/09/24 10:08:26;;;;;;;7.57;3.13;;;15.10;99.90;;;;;;5030291;28;20025;-56
2021/09/24 10:10:55;;;;;;;6.95;3.03;;;15.10;99.90;;;;;;5030162;28;20026;-52
2021/09/24 10:13:21;;;;;;;8.18;3.40;;;15.10;99.90;;;;;;5030157;28;20040;-50
2021/09/24 10:15:47;;;;;;;12.73;3.03;;;15.10;99.90;;;;;;5012175;28;20021;-52
2021/09/24 10:18:13;;;;;;;8.90;3.22;;;15.20;99.90;;;;;;5012276;28;20032;-53
2021/09/24 10:20:40;;;;;;;8.55;3.38;;;15.20;99.90;;;;;;5029886;28;20463;-52
2021/09/24 10:23:07;;;;;;;10.18;2.85;;;15.20;99.90;;;;;;5012411;28;20442;-52
2021/09/24 10:25:34;;;;;;;5.20;2.53;;;15.20;99.90;;;;;;5011999;28;20026;-52
2021/09/24 10:28:04;;;;;;;5.55;2.47;;;15.20;99.90;;;;;;5012566;28;20444;-54
2021/09/24 10:30:32;;;;;;;6.97;3.13;;;15.30;99.90;;;;;;5029610;28;20032;-53
2021/09/24 10:33:04;;;;;;;5.45;2.58;;;15.30;99.90;;;;;;5030220;28;20448;-54
2021/09/24 10:36:02;;;;;;;5.03;3.00;;;15.30;99.90;;;;;;5030194;28;20038;-52
2021/09/24 10:38:30;;;;;;;9.18;3.05;;;15.30;99.90;;;;;;4959237;28;20108;-55
2021/09/24 10:41:07;;;;;;;5.80;4.07;;;15.30;99.90;;;;;;5033980;28;20025;-53
2021/09/24 10:43:48;;;;;;;9.18;2.65;;;15.20;99.90;;;;;;5034139;28;20040;-53
2021/09/24 10:46:34;;;;;;;12.30;3.35;;;15.20;99.90;;;;;;5016245;28;20033;-51
2021/09/24 10:49:19;;;;;;;;;;;15.20;99.90;;;;;;5033798;28;20022;-57
2021/09/24 10:51:57;;;;;;;4.90;2.38;;;15.20;99.90;;;;;;5033786;28;19905;-55
2021/09/24 10:54:25;;;;;;;6.70;2.83;;;15.20;99.90;;;;;;5033929;28;20428;-51
2021/09/24 10:57:05;;;;;;;21.45;14.02;;;15.20;99.90;;;;;;5033840;28;20111;-55
2021/09/24 10:59:33;;;;;;;6.20;3.22;;;15.20;99.90;;;;;;5033185;28;20180;-51
2021/09/24 11:02:20;;;;;;;8.38;2.95;;;15.30;99.90;;;;;;5016152;28;20029;-50
2021/09/24 11:04:47;;;;;;;4.45;2.63;;;15.30;99.90;;;;;;5033393;28;20026;-51
2021/09/24 11:07:30;;;;;;;4.55;2.53;;;15.20;99.90;;;;;;5033441;28;20607;-50
2021/09/24 11:09:56;;;;;;;5.90;2.65;;;15.20;99.90;;;;;;5032957;28;20029;-50
2021/09/24 11:12:21;;;;;;;5.00;3.05;;;15.20;99.90;;;;;;5033520;28;20021;-54
2021/09/24 11:15:11;;;;;;;4.93;2.80;;;15.20;99.90;;;;;;5033535;28;20064;-52
2021/09/24 11:17:54;;;;;;;6.63;3.97;;;15.30;99.90;;;;;;5033795;28;20108;-51
2021/09/24 11:20:40;;;;;;;5.50;3.38;;;15.30;99.90;;;;;;5015054;28;20029;-54
2021/09/24 11:23:32;;;;;;;8.60;2.95;;;15.30;99.90;;;;;;5032670;28;20042;-54
2021/09/24 11:26:25;;;;;;;8.23;3.60;;;15.40;99.90;;;;;;5033063;28;20056;-55
2021/09/24 11:29:12;;;;;;;11.15;4.40;;;15.40;99.90;;;;;;5022637;28;20034;-51
2021/09/24 11:31:53;;;;;;;6.80;3.50;;;15.40;99.90;;;;;;5033225;28;20053;-50
2021/09/24 11:34:38;;;;;;;8.75;3.47;;;15.50;99.90;;;;;;5033050;28;20029;-52
2021/09/24 11:37:18;;;;;;;10.38;4.50;;;15.50;99.90;;;;;;5032963;28;20026;-54
2021/09/24 11:39:45;;;;;;;7.40;4.43;;;15.40;99.90;;;;;;5032830;28;20029;-52
2021/09/24 11:42:16;;;;;;;5.32;4.10;;;15.40;99.90;;;;;;5033323;28;20025;-50
2021/09/24 11:44:47;;;;;;;6.88;4.18;;;15.30;99.90;;;;;;5015346;28;20087;-51
2021/09/24 11:47:29;;;;;;;13.20;4.50;;;15.30;99.90;;;;;;5032860;28;20105;-51
2021/09/24 11:50:05;;;;;;;7.15;4.65;;;15.40;99.90;;;;;;5032171;28;20488;-51
2021/09/24 11:52:47;;;;;;;10.32;4.38;;;15.40;99.90;;;;;;5032815;28;20040;-52
2021/09/24 11:55:18;;;;;;;10.07;4.97;;;15.40;99.90;;;;;;5032776;28;20029;-49
2021/09/24 11:57:55;;;;;;;8.38;5.35;;;15.40;99.90;;;;;;5032699;28;20427;-49
2021/09/24 12:00:22;;;;;;;11.05;5.25;;;15.40;99.90;;;;;;5032250;28;20694;-50
2021/09/24 12:02:48;;;;;;;7.45;4.55;;;15.50;99.90;;;;;;5032377;28;20061;-50
2021/09/24 12:05:13;;;;;;;8.52;5.03;;;15.50;99.90;;;;;;5032527;28;20124;-49
2021/09/24 12:07:48;;;;;;;11.70;5.60;;;15.60;99.90;;;;;;5032447;28;20080;-52
2021/09/24 12:10:14;;;;;;;6.35;5.10;;;15.70;99.90;;;;;;5031987;28;20025;-51
2021/09/24 12:12:40;;;;;;;12.23;5.10;;;15.80;99.90;;;;;;5032523;28;20036;-51
2021/09/24 12:15:06;;;;;;;8.15;4.57;;;15.90;99.90;;;;;;5032128;28;20500;-53
2021/09/24 12:17:32;;;;;;;11.27;4.85;;;15.90;99.90;;;;;;5032293;28;20025;-51
2021/09/24 12:19:59;;;;;;;11.07;5.22;;;16.00;99.90;;;;;;5031880;28;20065;-54
2021/09/24 12:22:25;;;;;;;15.48;7.25;;;16.10;99.90;;;;;;5032593;28;20053;-49
2021/09/24 12:24:51;;;;;;;11.77;5.50;;;16.10;99.90;;;;;;5031837;28;20024;-50
2021/09/24 12:27:25;;;;;;;6.63;5.25;;;16.10;99.90;;;;;;5032141;28;20087;-50
2021/09/24 12:29:51;;;;;;;8.43;5.22;;;16.20;99.90;;;;;;5031904;28;20028;-49
2021/09/24 12:32:22;;;;;;;13.07;5.95;;;16.30;99.90;;;;;;5031960;28;20022;-50
2021/09/24 12:35:04;;;;;;;8.80;5.28;;;16.30;99.90;;;;;;5031763;28;20456;-55
2021/09/24 12:37:45;;;;;;;7.88;5.15;;;16.40;99.90;;;;;;5031748;28;20140;-52
2021/09/24 12:40:21;;;;;;;8.32;5.47;;;16.40;99.90;;;;;;5031486;28;20029;-50
2021/09/24 12:43:00;;;;;;;6.63;5.38;;;16.50;99.90;;;;;;5031768;28;20033;-51
2021/09/24 12:45:31;;;;;;;10.05;5.60;;;16.50;99.90;;;;;;5013911;28;20021;-52